Time;durP1;ratioP1;P1;durP2;ratioP2;P2;SDS_P1;SDS_P2;PMS_P1;PMS_P2;Temp;Humidity;BMP_temperature;BMP_pressure;BME280_temperature;BME280_humidity;BME280_pressure;Samples;Min_cycle;Max_cycle;Signal;HPM_P1;HPM_P2
2022/08/13 00:03:38;;;;;;;1.48;0.80;;;;;;;24.73;35.12;101471.31;16136043;19;131826;-55
2022/08/13 00:09:19;;;;;;;2.65;0.80;;;;;;;24.73;34.87;101474.09;16140539;19;130331;-57
2022/08/13 00:14:55;;;;;;;2.53;0.75;;;;;;;24.72;34.76;101472.41;16138623;19;129858;-54
2022/08/13 00:20:20;;;;;;;2.28;0.70;;;;;;;24.72;34.69;101481.63;16139280;19;130750;-56
2022/08/13 00:25:58;;;;;;;0.90;0.77;;;;;;;24.70;35.12;101469.88;16140067;19;129961;-56
2022/08/13 00:31:21;;;;;;;0.70;0.50;;;;;;;24.70;34.74;101474.66;16140727;19;129767;-55
2022/08/13 00:36:43;;;;;;;0.77;0.47;;;;;;;24.68;34.56;101477.69;16137419;19;130085;-56
2022/08/13 00:42:08;;;;;;;2.55;0.80;;;;;;;24.68;34.93;101477.69;16142036;19;129909;-56
2022/08/13 00:53:17;;;;;;;2.17;0.60;;;;;;;24.67;34.75;101476.03;16148950;19;130931;-56
2022/08/13 00:58:46;;;;;;;1.45;0.40;;;;;;;24.66;34.46;101484.69;16152476;19;129188;-54
2022/08/13 01:04:08;;;;;;;1.17;0.55;;;;;;;24.65;34.70;101483.88;16148721;19;129064;-53
2022/08/13 01:09:32;;;;;;;1.53;0.47;;;;;;;24.64;34.66;101481.31;16150960;19;129374;-55
2022/08/13 01:15:14;;;;;;;0.75;0.45;;;;;;;24.64;34.93;101484.13;16153200;19;130673;-54
2022/08/13 01:20:44;;;;;;;4.38;0.60;;;;;;;24.64;35.10;101482.19;16151655;19;129020;-56
2022/08/13 01:26:12;;;;;;;2.22;0.40;;;;;;;24.63;34.71;101482.44;16150940;19;129472;-54
2022/08/13 01:31:42;;;;;;;0.80;0.40;;;;;;;24.61;34.78;101477.13;16149466;19;129337;-54
2022/08/13 01:37:05;;;;;;;0.50;0.40;;;;;;;24.61;34.68;101485.50;16146234;19;129319;-54
2022/08/13 01:42:37;;;;;;;0.88;0.40;;;;;;;24.62;34.91;101491.94;16147083;19;129304;-56
2022/08/13 01:53:42;;;;;;;0.30;0.30;;;;;;;24.58;34.85;101494.44;16143649;19;129668;-55
2022/08/13 01:59:07;;;;;;;2.08;0.60;;;;;;;24.57;34.67;101493.63;16148941;19;129615;-56
2022/08/13 02:04:34;;;;;;;2.20;0.50;;;;;;;24.57;34.93;101487.16;16143963;19;131030;-55
2022/08/13 02:10:01;;;;;;;1.02;0.30;;;;;;;24.57;35.17;101487.16;16146828;19;129618;-54
2022/08/13 02:15:23;;;;;;;0.43;0.40;;;;;;;24.55;34.56;101487.47;16143576;19;131149;-56
2022/08/13 02:21:03;;;;;;;1.60;0.50;;;;;;;24.55;34.93;101484.66;16145294;19;129389;-55
2022/08/13 02:26:42;;;;;;;1.88;0.50;;;;;;;24.54;34.83;101490.53;16147273;19;128962;-56
2022/08/13 02:32:16;;;;;;;0.95;0.40;;;;;;;24.53;35.04;101491.66;16146343;19;129155;-56
2022/08/13 02:37:38;;;;;;;0.60;0.32;;;;;;;24.52;34.88;101485.19;16145824;19;128823;-54
2022/08/13 02:43:09;;;;;;;0.57;0.40;;;;;;;24.51;34.88;101486.31;16143216;19;129643;-54
2022/08/13 02:48:31;;;;;;;0.30;0.30;;;;;;;24.51;34.67;101489.09;16144891;19;129131;-55
2022/08/13 02:53:53;;;;;;;0.32;0.32;;;;;;;24.50;35.02;101487.41;16141437;19;129818;-56
2022/08/13 02:59:16;;;;;;;0.40;0.30;;;;;;;24.50;35.01;101487.41;16142636;19;129073;-55
2022/08/13 03:04:59;;;;;;;0.82;0.30;;;;;;;24.50;34.91;101487.41;16136834;19;129099;-58
2022/08/13 03:10:25;;;;;;;0.40;0.40;;;;;;;24.49;35.33;101494.16;16141447;19;129943;-55
2022/08/13 03:16:01;;;;;;;0.70;0.45;;;;;;;24.49;35.09;101490.50;16142313;19;129287;-54
2022/08/13 03:21:27;;;;;;;0.45;0.40;;;;;;;24.48;35.13;101494.41;16142457;19;131347;-55
2022/08/13 03:27:04;;;;;;;0.45;0.40;;;;;;;24.46;35.26;101486.31;16142466;19;129247;-55
2022/08/13 03:32:28;;;;;;;0.43;0.30;;;;;;;24.46;35.13;101497.50;16137858;19;130149;-56
2022/08/13 03:38:06;;;;;;;1.55;0.50;;;;;;;24.46;35.14;101491.03;16140209;19;128824;-54
2022/08/13 03:43:30;;;;;;;0.85;0.50;;;;;;;24.44;35.40;101491.31;16139164;19;129177;-56
2022/08/13 03:48:53;;;;;;;0.30;0.30;;;;;;;24.43;35.21;101490.47;16140161;19;129491;-56
2022/08/13 03:54:15;;;;;;;0.38;0.30;;;;;;;24.43;35.07;101495.22;16136807;19;130496;-54
2022/08/13 03:59:40;;;;;;;2.05;0.30;;;;;;;24.41;35.14;101494.66;16141709;19;129358;-54
2022/08/13 04:05:19;;;;;;;0.38;0.38;;;;;;;24.42;35.11;101501.94;16135958;19;128993;-56
2022/08/13 04:10:59;;;;;;;0.70;0.38;;;;;;;24.41;35.27;101497.44;16138250;19;129758;-55
2022/08/13 04:16:23;;;;;;;1.02;0.30;;;;;;;24.40;35.06;101495.78;16139715;19;129397;-56
2022/08/13 04:21:51;;;;;;;0.40;0.40;;;;;;;24.39;35.00;101500.53;16136678;19;129433;-55
2022/08/13 04:27:14;;;;;;;0.35;0.35;;;;;;;24.38;34.94;101498.00;16138152;19;129181;-55
2022/08/13 04:32:42;;;;;;;0.40;0.40;;;;;;;24.39;35.27;101505.28;16138803;19;129471;-55
2022/08/13 04:38:24;;;;;;;0.43;0.40;;;;;;;24.36;35.21;101498.28;16139924;19;129607;-55
2022/08/13 04:43:47;;;;;;;0.68;0.50;;;;;;;24.37;35.07;101499.13;16136006;19;130027;-56
2022/08/13 04:49:21;;;;;;;0.45;0.35;;;;;;;24.36;35.25;101498.28;16136047;19;129868;-56
2022/08/13 04:54:44;;;;;;;3.28;1.23;;;;;;;24.30;35.25;101510.56;16132724;19;129405;-57
2022/08/13 05:00:09;;;;;;;8.60;3.45;;;;;;;24.14;33.21;101512.38;16139402;19;130016;-55
2022/08/13 05:05:35;;;;;;;22.20;4.75;;;;;;;24.04;32.79;101513.16;16132143;19;129261;-56
2022/08/13 05:11:03;;;;;;;19.75;4.43;;;;;;;23.94;32.54;101516.72;16136895;19;128905;-57
2022/08/13 05:16:42;;;;;;;8.00;4.10;;;;;;;23.88;32.13;101523.38;16135974;19;129014;-53
2022/08/13 05:22:04;;;;;;;11.73;4.47;;;;;;;23.84;31.95;101530.63;16162021;19;129350;-57
2022/08/13 05:27:35;;;;;;;9.88;4.07;;;;;;;23.80;31.57;101524.75;16169317;19;130335;-58
2022/08/13 05:33:01;;;;;;;9.38;3.75;;;;;;;23.82;31.96;101530.03;16184541;19;131314;-57
2022/08/13 05:38:32;;;;;;;13.77;4.00;;;;;;;23.83;32.18;101523.34;16180443;19;130457;-58
2022/08/13 05:44:01;;;;;;;11.95;3.92;;;;;;;23.86;32.34;101527.56;16174004;19;129221;-58
2022/08/13 05:49:23;;;;;;;16.35;4.13;;;;;;;23.85;32.24;101521.13;16173879;19;129573;-61
2022/08/13 05:55:05;;;;;;;9.15;3.70;;;;;;;23.84;32.06;101525.03;16170264;19;129322;-57
2022/08/13 06:06:33;;;;;;;14.23;3.75;;;;;;;23.87;32.70;101530.09;16176765;19;130176;-55
2022/08/13 06:11:59;;;;;;;9.02;2.92;;;;;;;23.92;32.77;101529.28;16169573;19;129280;-66
2022/08/13 06:17:41;;;;;;;7.65;3.50;;;;;;;23.95;32.75;101526.78;16149742;19;128930;-68
2022/08/13 06:23:06;;;;;;;7.70;3.67;;;;;;;23.96;33.00;101525.69;16145308;19;128974;-58
2022/08/13 06:28:30;;;;;;;14.48;3.80;;;;;;;23.99;33.05;101526.28;16147594;19;129244;-66
2022/08/13 06:33:55;;;;;;;26.60;3.85;;;;;;;24.00;33.09;101525.16;16147282;19;129747;-66
2022/08/13 06:39:35;;;;;;;11.95;2.97;;;;;;;24.03;33.07;101527.38;16144492;19;129057;-67
2022/08/13 06:45:02;;;;;;;9.68;2.70;;;;;;;24.03;32.20;101527.38;16141432;19;130797;-65
2022/08/13 06:50:24;;;;;;;8.10;3.08;;;;;;;24.01;32.41;101524.88;16145557;19;130296;-66
2022/08/13 06:55:50;;;;;;;10.23;2.87;;;;;;;24.02;32.41;101520.13;16138661;19;129218;-63
2022/08/13 07:01:32;;;;;;;4.38;2.63;;;;;;;24.02;32.33;101520.97;16140415;19;129593;-58
2022/08/13 07:07:17;;;;;;;7.13;2.60;;;;;;;24.05;32.34;101530.75;16135819;19;129555;-58
2022/08/13 07:12:41;;;;;;;7.93;2.45;;;;;;;24.06;32.39;101524.91;16141774;19;129712;-54
2022/08/13 07:18:05;;;;;;;4.45;2.50;;;;;;;24.09;32.49;101529.97;16142915;19;129411;-58
2022/08/13 07:23:27;;;;;;;9.38;2.33;;;;;;;24.14;32.00;101528.31;16140315;19;129882;-57
2022/08/13 07:29:09;;;;;;;11.23;2.53;;;;;;;24.17;32.09;101523.03;16139399;19;130731;-56
2022/08/13 07:34:33;;;;;;;10.15;2.42;;;;;;;24.21;31.39;101523.31;16139746;19;129825;-55
2022/08/13 07:39:59;;;;;;;6.67;2.40;;;;;;;24.24;31.43;101534.84;16139719;19;129739;-56
2022/08/13 07:45:27;;;;;;;9.50;2.30;;;;;;;24.29;31.08;101535.97;16137305;19;128936;-54
2022/08/13 07:51:15;;;;;;;9.93;2.20;;;;;;;24.32;31.70;101541.03;16137851;19;130087;-54
2022/08/13 07:56:39;;;;;;;13.40;2.47;;;;;;;24.35;31.65;101523.72;16140251;19;129126;-54
2022/08/13 08:02:05;;;;;;;8.90;2.40;;;;;;;24.37;31.77;101532.69;16137400;19;129968;-55
2022/08/13 08:07:44;;;;;;;6.63;2.28;;;;;;;24.40;32.28;101529.31;16134103;19;129591;-54
2022/08/13 08:13:28;;;;;;;8.25;2.30;;;;;;;24.43;31.97;101526.81;16138272;19;129447;-55
2022/08/13 08:18:51;;;;;;;7.57;2.13;;;;;;;24.46;32.00;101525.47;16136869;19;128967;-55
2022/08/13 08:24:35;;;;;;;7.78;2.30;;;;;;;24.49;32.54;101524.06;16137360;19;130546;-56
2022/08/13 08:29:57;;;;;;;5.53;2.40;;;;;;;24.51;32.51;101530.22;16138738;19;129245;-54
2022/08/13 08:35:33;;;;;;;5.13;2.00;;;;;;;24.52;32.73;101524.34;16139667;19;129925;-55
2022/08/13 08:47:02;;;;;;;3.22;1.83;;;;;;;24.57;32.85;101532.78;16133517;19;129827;-56
2022/08/13 08:58:11;;;;;;;4.47;1.83;;;;;;;24.62;32.90;101529.16;16138015;19;131625;-55
2022/08/13 09:03:56;;;;;;;4.82;1.80;;;;;;;24.64;32.91;101529.75;16145627;19;130066;-55
2022/08/13 09:09:20;;;;;;;4.07;1.65;;;;;;;24.67;32.84;101531.13;16151603;19;129834;-55
2022/08/13 09:14:44;;;;;;;4.13;1.38;;;;;;;24.68;32.71;101521.63;16152195;19;132370;-55
2022/08/13 09:20:14;;;;;;;4.38;1.52;;;;;;;24.70;32.92;101520.25;16151717;19;130297;-55
2022/08/13 09:25:41;;;;;;;2.88;1.52;;;;;;;24.71;32.97;101509.91;16144660;19;130237;-53
2022/08/13 09:31:16;;;;;;;4.53;1.30;;;;;;;24.70;33.28;101519.41;16147895;19;129618;-54
2022/08/13 09:36:46;;;;;;;5.00;2.03;;;;;;;24.72;33.03;101511.59;16148342;19;129248;-55
2022/08/13 09:42:20;;;;;;;4.50;1.42;;;;;;;24.75;33.21;101511.00;16149391;19;129720;-55
2022/08/13 09:47:45;;;;;;;4.10;1.30;;;;;;;24.76;33.06;101506.28;16143622;19;129504;-55
2022/08/13 09:53:27;;;;;;;4.50;1.63;;;;;;;24.75;33.44;101510.19;16142559;19;130758;-56
2022/08/13 09:58:52;;;;;;;2.63;1.47;;;;;;;24.76;33.30;101512.69;16148373;19;130988;-56
2022/08/13 10:04:18;;;;;;;2.15;1.48;;;;;;;24.76;33.19;101509.91;16145874;19;129483;-54
2022/08/13 10:09:40;;;;;;;5.28;1.20;;;;;;;24.78;32.89;101493.69;16146844;19;130145;-55
2022/08/13 10:15:22;;;;;;;3.92;1.02;;;;;;;24.82;32.48;101478.03;16145781;19;129938;-53
2022/08/13 10:20:45;;;;;;;4.53;1.30;;;;;;;24.87;31.61;101486.44;16146896;19;129041;-53
2022/08/13 10:26:07;;;;;;;1.90;0.88;;;;;;;24.90;31.56;101478.63;16141229;19;129333;-56
2022/08/13 10:31:29;;;;;;;3.10;1.20;;;;;;;24.91;31.14;101469.13;16146652;19;129790;-55
2022/08/13 10:37:10;;;;;;;5.60;1.30;;;;;;;24.93;31.12;101469.69;16146877;19;131202;-56
2022/08/13 10:42:32;;;;;;;7.28;1.10;;;;;;;24.91;30.35;101457.94;16145875;19;130723;-53
2022/08/13 10:47:54;;;;;;;4.95;1.17;;;;;;;24.93;29.63;101459.31;16140988;19;129427;-56
2022/08/13 10:59:05;;;;;;;4.25;1.00;;;;;;;25.06;28.99;101465.50;16145149;19;129631;-56
2022/08/13 11:04:31;;;;;;;4.93;0.90;;;;;;;25.10;28.32;101461.03;16139290;19;129796;-56
2022/08/13 11:09:53;;;;;;;7.78;0.70;;;;;;;25.14;27.68;101463.00;16141404;19;128933;-52
2022/08/13 11:15:14;;;;;;;2.60;0.63;;;;;;;25.17;27.75;101450.44;16143902;19;129502;-58
2022/08/13 11:21:02;;;;;;;1.67;0.60;;;;;;;25.17;27.39;101451.25;16136686;19;129496;-53
2022/08/13 11:26:20;;;;;;;5.63;0.60;;;;;;;25.22;27.41;101453.22;16134458;19;130074;-58
2022/08/13 11:31:52;;;;;;;4.35;0.70;;;;;;;25.27;27.14;101438.38;16140804;19;130931;-59
2022/08/13 11:37:20;;;;;;;5.07;0.77;;;;;;;25.30;27.61;101437.81;16140541;19;128873;-53
2022/08/13 11:42:43;;;;;;;1.30;0.70;;;;;;;25.34;27.60;101431.38;16139185;19;129759;-57
2022/08/13 11:48:25;;;;;;;2.22;0.52;;;;;;;25.36;27.54;101436.69;16134272;19;129341;-54
2022/08/13 11:53:50;;;;;;;5.05;0.75;;;;;;;25.40;27.23;101428.59;16135924;19;128867;-56
2022/08/13 11:59:32;;;;;;;2.47;1.00;;;;;;;25.42;27.36;101434.72;16135404;19;129307;-58
2022/08/13 12:05:05;;;;;;;5.07;1.02;;;;;;;25.45;26.96;101422.97;16137197;19;131758;-57
2022/08/13 12:10:29;;;;;;;2.60;0.90;;;;;;;25.45;26.97;101428.56;16139073;19;129410;-57
2022/08/13 12:16:10;;;;;;;2.58;1.05;;;;;;;25.45;27.21;101417.34;16137979;19;130051;-55
2022/08/13 12:21:34;;;;;;;1.02;0.73;;;;;;;25.46;26.91;101411.50;16139043;19;129475;-56
2022/08/13 12:27:03;;;;;;;7.00;0.90;;;;;;;25.46;27.05;101396.63;16134627;19;129452;-58
2022/08/13 12:32:28;;;;;;;3.58;0.80;;;;;;;25.46;27.47;101389.09;16137549;19;129350;-58
2022/08/13 12:37:50;;;;;;;2.17;1.10;;;;;;;25.49;27.27;101382.91;16133441;19;129525;-59
2022/08/13 12:43:32;;;;;;;4.50;1.00;;;;;;;25.52;27.61;101389.94;16136506;19;129713;-58
2022/08/13 12:49:13;;;;;;;2.95;0.85;;;;;;;25.55;27.29;101382.94;16137303;19;129018;-58
2022/08/13 12:54:35;;;;;;;2.30;0.70;;;;;;;25.54;27.55;101386.84;16134658;19;129377;-58
2022/08/13 13:00:17;;;;;;;3.65;0.90;;;;;;;25.57;27.36;101383.50;16136961;19;129255;-58
2022/08/13 13:05:44;;;;;;;4.32;0.98;;;;;;;25.57;27.52;101375.09;16134528;19;129454;-58
2022/08/13 13:11:09;;;;;;;2.80;0.70;;;;;;;25.55;26.89;101371.72;16135323;19;129358;-58
2022/08/13 13:16:35;;;;;;;4.82;0.82;;;;;;;25.60;26.60;101357.72;16133932;19;129370;-58
2022/08/13 13:21:58;;;;;;;3.10;0.90;;;;;;;25.63;26.35;101357.13;16134912;19;128984;-58
2022/08/13 13:27:21;;;;;;;5.95;0.98;;;;;;;25.68;26.66;101353.47;16130662;19;130077;-58
2022/08/13 13:33:07;;;;;;;4.40;0.80;;;;;;;25.66;27.02;101345.34;16134682;19;129562;-58
2022/08/13 13:38:43;;;;;;;3.97;0.98;;;;;;;25.66;27.16;101356.56;16133487;19;130346;-56
2022/08/13 13:44:16;;;;;;;7.90;0.98;;;;;;;25.59;27.45;101345.66;16129764;19;131412;-57
2022/08/13 13:49:57;;;;;;;4.05;1.05;;;;;;;25.53;28.09;101338.41;16142761;19;129376;-56
2022/08/13 13:55:22;;;;;;;5.90;1.20;;;;;;;25.49;28.11;101335.28;16143815;19;128962;-56
2022/08/13 14:00:47;;;;;;;3.88;0.80;;;;;;;25.49;28.63;101324.06;16144844;19;130672;-59
2022/08/13 14:06:20;;;;;;;11.65;1.45;;;;;;;25.50;29.17;101322.94;16141921;19;129340;-54
2022/08/13 14:11:43;;;;;;;6.80;1.35;;;;;;;25.54;28.95;101320.44;16145128;19;130231;-58
2022/08/13 14:17:14;;;;;;;6.85;1.20;;;;;;;25.59;29.33;101314.00;16145391;19;128840;-57
2022/08/13 14:22:37;;;;;;;3.80;1.00;;;;;;;25.57;29.59;101307.84;16143718;19;129588;-60
2022/08/13 14:28:00;;;;;;;4.32;0.80;;;;;;;25.57;29.83;101303.06;16139727;19;129038;-58
2022/08/13 14:33:22;;;;;;;6.80;1.08;;;;;;;25.58;29.95;101303.94;16142399;19;131840;-58
2022/08/13 14:39:05;;;;;;;5.13;0.90;;;;;;;25.58;30.21;101293.53;16142843;19;129583;-56
2022/08/13 14:44:42;;;;;;;5.70;0.70;;;;;;;25.60;30.23;101284.88;16138125;19;129514;-57
2022/08/13 14:50:17;;;;;;;6.57;0.75;;;;;;;25.61;30.33;101281.78;16142506;19;129436;-57
2022/08/13 14:55:40;;;;;;;6.38;0.95;;;;;;;25.62;30.17;101279.78;16137049;19;129984;-56
2022/08/13 15:01:02;;;;;;;6.25;0.98;;;;;;;25.64;30.39;101277.56;16140316;19;130279;-53
2022/08/13 15:06:27;;;;;;;2.73;0.90;;;;;;;25.64;30.39;101258.78;16139400;19;129099;-59
2022/08/13 15:11:56;;;;;;;1.98;0.70;;;;;;;25.65;30.20;101254.03;16142903;19;129254;-58
2022/08/13 15:17:18;;;;;;;3.42;0.70;;;;;;;25.66;30.12;101244.50;16141986;19;129362;-60
2022/08/13 15:22:41;;;;;;;6.97;0.80;;;;;;;25.66;30.15;101238.88;16141891;19;130892;-61
2022/08/13 15:28:06;;;;;;;9.27;0.90;;;;;;;25.67;30.54;101239.72;16137185;19;130148;-58
2022/08/13 15:33:33;;;;;;;8.27;0.85;;;;;;;25.68;30.27;101232.97;16141134;19;130114;-59
2022/08/13 15:38:58;;;;;;;5.40;0.95;;;;;;;25.68;29.84;101230.19;16138415;19;130626;-59
2022/08/13 15:44:21;;;;;;;4.57;1.15;;;;;;;25.68;29.98;101224.56;16139777;19;130874;-58
2022/08/13 15:49:53;;;;;;;5.75;1.08;;;;;;;25.67;29.81;101217.28;16141150;19;129819;-59
2022/08/13 15:55:14;;;;;;;6.65;0.82;;;;;;;25.65;29.80;101200.78;16134944;19;129032;-58
2022/08/13 16:00:40;;;;;;;6.65;1.15;;;;;;;25.65;29.69;101209.19;16139587;19;129755;-58
2022/08/13 16:06:11;;;;;;;4.13;0.80;;;;;;;25.65;29.82;101197.97;16138093;19;129312;-59
2022/08/13 16:11:37;;;;;;;3.95;0.73;;;;;;;25.65;29.81;101192.38;16137016;19;129164;-59
2022/08/13 16:17:07;;;;;;;2.53;0.70;;;;;;;25.63;29.99;101184.28;16139669;19;129562;-59
2022/08/13 16:22:30;;;;;;;4.45;0.77;;;;;;;25.63;29.96;101181.47;16136289;19;129721;-58
2022/08/13 16:27:56;;;;;;;4.78;0.82;;;;;;;25.61;30.00;101177.25;16134589;19;131178;-59
2022/08/13 16:33:18;;;;;;;3.30;0.63;;;;;;;25.60;30.04;101167.22;16136218;19;130027;-58
2022/08/13 16:38:39;;;;;;;4.25;0.70;;;;;;;25.59;29.89;101165.53;16129996;19;129981;-50
2022/08/13 16:44:03;;;;;;;11.80;0.80;;;;;;;25.63;29.93;101149.78;16135905;19;129683;-46
2022/08/13 16:49:45;;;;;;;1.98;0.80;;;;;;;25.67;30.01;101152.84;16131053;19;130529;-45
2022/08/13 16:55:11;;;;;;;20.92;1.00;;;;;;;25.67;30.07;101145.31;16129434;19;129378;-46
2022/08/13 17:00:36;;;;;;;5.32;1.00;;;;;;;25.68;30.04;101138.56;16135408;19;129142;-48
2022/08/13 17:12:00;;;;;;;5.47;0.93;;;;;;;25.70;29.86;101136.31;16126504;19;129356;-47
2022/08/13 17:17:22;;;;;;;4.55;0.80;;;;;;;25.70;30.30;101133.53;16136033;19;128845;-49
2022/08/13 17:22:44;;;;;;;5.05;0.90;;;;;;;25.70;30.10;101136.31;16138142;19;129483;-50
2022/08/13 17:28:07;;;;;;;2.45;0.88;;;;;;;25.71;30.41;101138.00;16147595;19;129335;-51
2022/08/13 17:33:35;;;;;;;5.85;1.20;;;;;;;25.73;30.05;101127.31;16149762;19;129197;-50
2022/08/13 17:39:19;;;;;;;5.03;0.90;;;;;;;25.71;30.13;101124.00;16147640;19;129933;-48
2022/08/13 17:44:41;;;;;;;7.40;0.90;;;;;;;25.68;30.17;101130.16;16142689;19;129428;-49
2022/08/13 17:50:04;;;;;;;10.43;1.02;;;;;;;25.68;30.45;101132.13;16141615;19;129461;-52
2022/08/13 17:55:28;;;;;;;10.50;0.97;;;;;;;25.69;30.71;101131.84;16142171;19;130510;-48
2022/08/13 18:01:13;;;;;;;17.65;1.20;;;;;;;25.69;31.15;101129.03;16143391;19;129557;-48
2022/08/13 18:06:47;;;;;;;7.93;1.10;;;;;;;25.67;31.08;101134.09;16143490;19;129622;-51
2022/08/13 18:12:12;;;;;;;12.23;1.35;;;;;;;25.67;31.03;101134.09;16146328;19;129088;-48
2022/08/13 18:17:54;;;;;;;10.93;1.27;;;;;;;25.67;31.11;101134.09;16145642;19;129463;-49
2022/08/13 18:23:35;;;;;;;10.13;1.13;;;;;;;25.66;31.51;101143.63;16145136;19;129339;-48
2022/08/13 18:29:13;;;;;;;10.75;1.30;;;;;;;25.64;31.32;101157.06;16140477;19;129941;-47
2022/08/13 18:34:56;;;;;;;6.93;1.02;;;;;;;25.62;31.81;101159.31;16142771;19;130203;-49
2022/08/13 18:40:21;;;;;;;4.72;0.93;;;;;;;25.59;31.69;101162.72;16143851;19;129563;-50
2022/08/13 18:45:43;;;;;;;10.13;1.27;;;;;;;25.59;31.94;101163.56;16141928;19;129461;-48
2022/08/13 18:51:18;;;;;;;12.67;1.30;;;;;;;25.60;32.18;101161.59;16140980;19;129179;-49
2022/08/13 18:57:02;;;;;;;25.08;1.50;;;;;;;25.58;32.11;101152.66;16142160;19;131116;-48
2022/08/13 19:02:39;;;;;;;16.10;1.42;;;;;;;25.56;32.12;101155.72;16142902;19;131316;-49
2022/08/13 19:08:03;;;;;;;23.60;1.55;;;;;;;25.55;32.04;101156.03;16135229;19;129443;-46
2022/08/13 19:13:25;;;;;;;26.25;1.95;;;;;;;25.54;32.06;101151.53;16142135;19;128905;-51
2022/08/13 19:18:54;;;;;;;14.80;1.70;;;;;;;25.53;32.38;101161.06;16143300;19;130227;-49
2022/08/13 19:24:18;;;;;;;13.50;1.75;;;;;;;25.51;32.59;101164.13;16139093;19;129069;-51
2022/08/13 19:29:50;;;;;;;10.77;1.35;;;;;;;25.49;32.02;101158.81;16137254;19;129475;-48
2022/08/13 19:35:15;;;;;;;6.65;1.35;;;;;;;25.45;32.10;101157.72;16137994;19;129323;-50
2022/08/13 19:40:37;;;;;;;11.05;1.50;;;;;;;25.43;31.57;101151.56;16141228;19;129425;-46
2022/08/13 19:46:17;;;;;;;9.48;1.77;;;;;;;25.43;31.56;101153.50;16128799;19;130094;-49
2022/08/13 19:51:45;;;;;;;8.07;1.30;;;;;;;25.44;31.56;101147.66;16135672;19;128955;-47
2022/08/13 19:57:13;;;;;;;9.00;1.50;;;;;;;25.43;31.83;101154.38;16138971;19;129415;-50
2022/08/13 20:02:36;;;;;;;13.65;1.83;;;;;;;25.40;31.75;101152.13;16136788;19;129233;-49
2022/08/13 20:08:00;;;;;;;6.80;1.30;;;;;;;25.40;32.03;101148.50;16135495;19;129435;-46
2022/08/13 20:13:24;;;;;;;5.25;1.02;;;;;;;25.40;31.82;101146.53;16139738;19;129705;-47
2022/08/13 20:18:46;;;;;;;8.93;1.30;;;;;;;25.36;31.94;101151.03;16138493;19;129285;-49
2022/08/13 20:24:20;;;;;;;10.65;1.33;;;;;;;25.36;32.12;101150.19;16134134;19;131070;-48
2022/08/13 20:30:05;;;;;;;8.75;1.23;;;;;;;25.34;31.93;101153.31;16131199;19;129548;-46
2022/08/13 20:35:28;;;;;;;12.35;1.17;;;;;;;25.32;32.35;101150.75;16138711;19;129377;-49
2022/08/13 20:40:53;;;;;;;4.82;1.48;;;;;;;25.32;32.16;101147.16;16138609;19;131716;-50
2022/08/13 20:46:15;;;;;;;7.97;1.23;;;;;;;25.32;32.29;101144.34;16132539;19;129123;-46
2022/08/13 20:51:39;;;;;;;3.80;1.20;;;;;;;25.32;32.52;101144.34;16137118;19;130493;-49
2022/08/13 20:57:03;;;;;;;5.97;1.00;;;;;;;25.31;32.22;101142.66;16140135;19;129424;-46
2022/08/13 21:02:34;;;;;;;6.13;1.05;;;;;;;25.32;32.23;101135.94;16150545;19;129824;-45
2022/08/13 21:07:57;;;;;;;4.18;0.98;;;;;;;25.31;32.73;101139.88;16148791;19;129679;-52
2022/08/13 21:13:23;;;;;;;6.93;1.02;;;;;;;25.29;32.53;101136.50;16151755;19;128981;-54
2022/08/13 21:18:52;;;;;;;2.25;1.00;;;;;;;25.28;32.71;101132.88;16150281;19;130277;-55
2022/08/13 21:24:14;;;;;;;4.35;1.08;;;;;;;25.29;32.76;101130.91;16149736;19;131330;-55
2022/08/13 21:29:42;;;;;;;4.13;1.00;;;;;;;25.27;32.74;101121.94;16145982;19;131377;-55
2022/08/13 21:35:04;;;;;;;3.30;1.30;;;;;;;25.25;32.64;101122.25;16150954;19;130189;-56
2022/08/13 21:40:29;;;;;;;6.03;1.00;;;;;;;25.26;32.97;101123.06;16146248;19;129493;-56
2022/08/13 21:45:50;;;;;;;1.38;0.63;;;;;;;25.25;32.73;101115.78;16141222;19;129433;-48
2022/08/13 21:51:13;;;;;;;1.52;0.70;;;;;;;25.24;32.86;101111.31;16145992;19;130890;-51
2022/08/13 21:56:36;;;;;;;4.50;1.00;;;;;;;25.26;32.70;101117.47;16148653;19;129518;-52
2022/08/13 22:02:01;;;;;;;0.80;0.60;;;;;;;25.24;33.06;101116.91;16147646;19;129599;-49
2022/08/13 22:07:23;;;;;;;2.05;0.70;;;;;;;25.23;32.89;101129.28;16146114;19;129849;-50
2022/08/13 22:13:14;;;;;;;1.67;1.05;;;;;;;25.24;33.32;101130.91;16147214;19;129445;-52
2022/08/13 22:18:36;;;;;;;1.67;0.77;;;;;;;25.24;33.23;101122.53;16149206;19;129569;-46
2022/08/13 22:24:00;;;;;;;1.30;0.80;;;;;;;25.23;33.49;101120.88;16141046;19;129599;-47
2022/08/13 22:35:02;;;;;;;3.50;0.95;;;;;;;25.19;33.42;101096.25;16146519;19;129159;-49
2022/08/13 22:40:36;;;;;;;0.95;0.73;;;;;;;25.18;33.25;101094.56;16144588;19;129652;-45
2022/08/13 22:45:58;;;;;;;2.95;0.68;;;;;;;25.18;33.39;101094.56;16141283;19;129293;-45
2022/08/13 22:51:19;;;;;;;3.80;0.60;;;;;;;25.18;33.15;101094.56;16137757;19;129855;-49
2022/08/13 22:56:44;;;;;;;4.55;0.90;;;;;;;25.16;33.38;101085.59;16145295;19;129433;-51
2022/08/13 23:02:08;;;;;;;3.20;0.70;;;;;;;25.17;33.41;101087.28;16142994;19;130047;-49
2022/08/13 23:07:31;;;;;;;2.95;0.95;;;;;;;25.17;33.35;101075.25;16142307;19;129569;-48
2022/08/13 23:12:56;;;;;;;1.17;0.70;;;;;;;25.16;33.56;101068.00;16142868;19;129084;-49
2022/08/13 23:18:19;;;;;;;3.17;0.88;;;;;;;25.16;33.26;101062.38;16141533;19;129359;-49
2022/08/13 23:23:41;;;;;;;1.15;0.60;;;;;;;25.15;33.56;101057.91;16139970;19;129116;-50
2022/08/13 23:29:10;;;;;;;1.80;0.80;;;;;;;25.14;33.52;101045.03;16139286;19;130259;-47
2022/08/13 23:34:33;;;;;;;1.27;0.68;;;;;;;25.13;33.76;101044.19;16142252;19;129761;-46
2022/08/13 23:39:55;;;;;;;3.75;0.50;;;;;;;25.12;33.35;101042.50;16138186;19;133833;-47
2022/08/13 23:45:19;;;;;;;1.13;0.60;;;;;;;25.12;33.58;101034.09;16140310;19;130068;-49
2022/08/13 23:50:44;;;;;;;3.97;0.70;;;;;;;25.12;33.75;101027.69;16135607;19;130266;-50
2022/08/13 23:56:06;;;;;;;1.63;0.80;;;;;;;25.12;33.40;101014.50;16133598;19;129825;-45
